Time;durP1;ratioP1;P1;durP2;ratioP2;P2;SDS_P1;SDS_P2;PMS_P1;PMS_P2;Temp;Humidity;BMP_temperature;BMP_pressure;BME280_temperature;BME280_humidity;BME280_pressure;Samples;Min_cycle;Max_cycle;Signal;HPM_P1;HPM_P2
2022/10/21 00:01:26;;;;;;;6.80;4.27;;;;;;;12.04;90.00;100411.31;5113887;28;20209;-59
2022/10/21 00:03:53;;;;;;;4.60;4.23;;;;;;;12.04;90.34;100416.50;5113248;28;20205;-59
2022/10/21 00:06:20;;;;;;;5.17;4.37;;;;;;;12.04;89.77;100418.25;5113406;28;20201;-58
2022/10/21 00:08:47;;;;;;;10.47;4.10;;;;;;;12.04;89.99;100416.50;5113301;28;20606;-59
2022/10/21 00:11:14;;;;;;;6.47;4.33;;;;;;;11.93;90.31;100392.47;5113195;28;20313;-57
2022/10/21 00:13:41;;;;;;;5.13;4.17;;;;;;;12.05;90.21;100410.41;5113157;28;20194;-59
2022/10/21 00:16:10;;;;;;;6.67;4.07;;;;;;;12.00;90.36;100415.72;5124468;27;20666;-55
2022/10/21 00:18:40;;;;;;;6.03;4.17;;;;;;;11.97;90.43;100414.91;5133323;27;20430;-56
2022/10/21 00:21:09;;;;;;;6.60;4.33;;;;;;;11.94;90.56;100417.59;5133422;27;20186;-59
2022/10/21 00:23:35;;;;;;;5.30;4.30;;;;;;;11.96;90.33;100418.41;5133340;27;20204;-59
2022/10/21 00:26:03;;;;;;;5.87;4.40;;;;;;;11.86;90.71;100411.66;5133566;27;20194;-59
2022/10/21 00:28:30;;;;;;;6.30;4.47;;;;;;;11.85;90.80;100409.97;5133217;27;20685;-56
2022/10/21 00:30:57;;;;;;;5.13;4.57;;;;;;;11.76;91.46;100412.72;5133444;27;20229;-55
2022/10/21 00:33:26;;;;;;;5.23;4.10;;;;;;;11.76;91.61;100412.72;5133035;27;20587;-59
2022/10/21 00:35:57;;;;;;;6.57;4.03;;;;;;;11.80;91.43;100404.00;5133501;27;20197;-57
2022/10/21 00:38:24;;;;;;;4.60;4.20;;;;;;;11.88;91.53;100404.69;5133567;27;20483;-59
2022/10/21 00:40:51;;;;;;;5.47;4.30;;;;;;;11.92;90.76;100408.94;5133212;27;20579;-59
2022/10/21 00:43:18;;;;;;;10.93;4.27;;;;;;;11.76;90.94;100384.97;5133604;27;20202;-58
2022/10/21 00:45:47;;;;;;;7.00;4.70;;;;;;;11.87;90.83;100403.81;5132814;27;20198;-58
2022/10/21 00:48:20;;;;;;;12.67;4.30;;;;;;;11.78;90.67;100387.56;5133284;27;20190;-54
2022/10/21 00:50:52;;;;;;;13.27;5.40;;;;;;;11.89;90.40;100396.00;5133037;27;20253;-58
2022/10/21 00:53:21;;;;;;;5.80;4.70;;;;;;;11.88;90.76;100404.69;5133027;27;20244;-58
2022/10/21 00:55:52;;;;;;;6.20;4.83;;;;;;;11.85;91.08;100409.97;5132739;27;20190;-59
2022/10/21 00:58:24;;;;;;;7.27;4.63;;;;;;;11.84;90.35;100403.91;5132989;27;20220;-60
2022/10/21 01:00:54;;;;;;;5.10;4.60;;;;;;;11.67;91.32;100410.28;5132276;27;20226;-59
2022/10/21 01:03:22;;;;;;;7.60;5.20;;;;;;;11.55;92.11;100409.63;5132735;27;20204;-59
2022/10/21 01:05:50;;;;;;;6.67;4.77;;;;;;;11.59;91.83;100411.28;5132851;27;20233;-59
2022/10/21 01:08:18;;;;;;;6.83;4.60;;;;;;;11.56;92.45;100403.53;5132790;27;20699;-58
2022/10/21 01:10:47;;;;;;;10.47;4.93;;;;;;;11.55;92.52;100407.03;5132330;27;20224;-58
2022/10/21 01:13:23;;;;;;;5.30;4.77;;;;;;;11.59;91.84;100400.88;5132564;27;20228;-59
2022/10/21 01:15:56;;;;;;;6.03;5.30;;;;;;;11.56;91.99;100400.94;5132550;27;20252;-59
2022/10/21 01:18:31;;;;;;;5.80;4.67;;;;;;;11.47;91.83;100393.31;5132622;27;20225;-56
2022/10/21 01:21:23;;;;;;;5.20;4.80;;;;;;;11.60;92.03;100406.94;5132647;27;20246;-56
2022/10/21 01:24:25;;;;;;;6.37;4.70;;;;;;;11.57;92.23;100399.19;5132467;27;20754;-56
2022/10/21 01:27:24;;;;;;;8.00;4.53;;;;;;;11.61;91.88;100400.88;5130754;27;20237;-55
2022/10/21 01:30:23;;;;;;;8.47;5.07;;;;;;;11.64;91.46;100411.19;5131997;27;20221;-56
2022/10/21 01:33:09;;;;;;;7.30;5.37;;;;;;;11.59;92.06;100410.44;5130177;27;20198;-56
2022/10/21 01:35:43;;;;;;;14.67;5.47;;;;;;;11.44;91.79;100382.97;5131933;27;20190;-55
2022/10/21 01:38:20;;;;;;;8.00;5.27;;;;;;;11.59;92.11;100406.09;5132051;27;20197;-56
2022/10/21 01:40:56;;;;;;;9.40;5.07;;;;;;;11.60;91.95;100410.41;5131792;27;20193;-55
2022/10/21 01:43:33;;;;;;;7.10;5.60;;;;;;;11.58;92.35;100414.78;5131954;27;20213;-55
2022/10/21 01:46:05;;;;;;;8.80;5.30;;;;;;;11.59;91.70;100407.84;5132027;27;20208;-56
2022/10/21 01:48:37;;;;;;;6.33;5.07;;;;;;;11.58;91.97;100409.56;5131898;27;20281;-56
2022/10/21 01:51:07;;;;;;;5.77;4.40;;;;;;;11.57;92.07;100415.66;5131900;27;20221;-56
2022/10/21 01:53:41;;;;;;;7.63;4.90;;;;;;;11.54;91.48;100407.03;5131639;27;20193;-55
2022/10/21 01:56:10;;;;;;;6.43;4.50;;;;;;;11.64;91.45;100416.38;5131529;27;20281;-55
2022/10/21 01:58:39;;;;;;;7.03;4.90;;;;;;;11.60;91.38;100418.22;5131480;27;20729;-55
2022/10/21 02:01:09;;;;;;;12.50;4.53;;;;;;;11.52;91.67;100412.25;5131511;27;20198;-55
2022/10/21 02:03:40;;;;;;;5.00;4.50;;;;;;;11.55;91.72;100421.75;5131382;27;20194;-55
2022/10/21 02:06:07;;;;;;;8.47;4.77;;;;;;;11.56;91.18;100419.13;5131461;27;20662;-55
2022/10/21 02:08:34;;;;;;;8.07;4.53;;;;;;;11.56;91.21;100416.53;5131512;27;20204;-55
2022/10/21 02:11:07;;;;;;;5.53;4.90;;;;;;;11.45;91.31;100400.28;5130504;27;20225;-55
2022/10/21 02:13:39;;;;;;;5.83;4.80;;;;;;;11.33;91.48;100403.09;5131479;27;20209;-59
2022/10/21 02:16:10;;;;;;;8.60;4.67;;;;;;;11.44;92.36;100426.28;5131453;27;20688;-59
2022/10/21 02:18:39;;;;;;;4.90;4.40;;;;;;;11.41;92.12;100423.75;5131161;27;20190;-60
2022/10/21 02:21:09;;;;;;;9.67;4.90;;;;;;;11.31;92.52;100399.66;5131283;27;20696;-60
2022/10/21 02:23:42;;;;;;;6.43;4.50;;;;;;;11.46;92.16;100422.78;5131043;27;20190;-63
2022/10/21 02:26:10;;;;;;;6.77;4.40;;;;;;;11.47;91.94;100429.72;5131235;27;20670;-57
2022/10/21 02:28:38;;;;;;;8.40;4.87;;;;;;;11.46;92.20;100432.34;5131318;27;20612;-59
2022/10/21 02:31:14;;;;;;;5.80;4.87;;;;;;;11.46;91.95;100434.94;5131056;27;20311;-58
2022/10/21 02:33:51;;;;;;;9.53;5.00;;;;;;;11.38;92.55;100429.88;5130984;27;20280;-58
2022/10/21 02:36:28;;;;;;;6.63;4.87;;;;;;;11.25;93.40;100420.56;5130806;27;20579;-59
2022/10/21 02:39:02;;;;;;;7.27;4.90;;;;;;;11.36;93.65;100431.63;5130774;27;20198;-55
2022/10/21 02:41:32;;;;;;;5.90;4.70;;;;;;;11.37;93.47;100428.16;5130998;27;20221;-55
2022/10/21 02:44:02;;;;;;;7.90;5.07;;;;;;;11.21;93.41;100429.28;5130879;27;20685;-55
2022/10/21 02:46:36;;;;;;;5.73;5.17;;;;;;;11.24;94.15;100442.25;5130921;27;20240;-55
2022/10/21 02:49:05;;;;;;;7.83;5.40;;;;;;;11.29;93.93;100436.06;5130885;27;20193;-55
2022/10/21 02:51:32;;;;;;;7.57;5.30;;;;;;;11.32;93.65;100444.69;5130598;27;20252;-56
2022/10/21 02:53:59;;;;;;;7.60;4.97;;;;;;;11.26;93.74;100435.28;5130720;27;20653;-56
2022/10/21 02:56:26;;;;;;;6.67;5.17;;;;;;;11.33;93.27;100447.28;5130612;27;20193;-56
2022/10/21 02:58:53;;;;;;;7.50;5.13;;;;;;;11.31;93.28;100445.59;5130445;27;20198;-55
2022/10/21 03:01:20;;;;;;;6.37;5.23;;;;;;;11.25;94.24;100446.56;5130326;27;20190;-58
2022/10/21 03:03:47;;;;;;;7.23;5.50;;;;;;;11.22;93.75;100454.41;5130350;27;20281;-59
2022/10/21 03:06:15;;;;;;;12.90;5.67;;;;;;;11.17;94.51;100457.06;5130397;27;20194;-54
2022/10/21 03:08:42;;;;;;;6.77;5.13;;;;;;;11.15;94.29;100460.59;5130564;27;20229;-56
2022/10/21 03:11:09;;;;;;;6.53;5.00;;;;;;;11.13;95.03;100457.16;5130462;27;20809;-54
2022/10/21 03:13:36;;;;;;;9.60;5.60;;;;;;;11.09;95.18;100463.25;5130392;27;20213;-58
2022/10/21 03:16:03;;;;;;;8.57;7.03;;;;;;;10.94;96.13;100458.34;5129996;27;20578;-55
2022/10/21 03:18:30;;;;;;;14.17;8.00;;;;;;;10.87;96.53;100458.41;5130211;27;20233;-55
2022/10/21 03:20:57;;;;;;;17.83;9.37;;;;;;;10.84;97.03;100455.84;5129432;27;20186;-54
2022/10/21 03:23:25;;;;;;;16.90;9.43;;;;;;;10.89;97.24;100461.84;5128808;27;20643;-56
2022/10/21 03:25:52;;;;;;;8.67;6.83;;;;;;;10.93;96.71;100456.59;5129120;27;20198;-55
2022/10/21 03:28:19;;;;;;;13.30;8.93;;;;;;;10.93;96.58;100456.59;5130417;27;20228;-60
2022/10/21 03:30:46;;;;;;;11.63;8.80;;;;;;;10.87;97.06;100447.16;5129817;27;20232;-60
2022/10/21 03:33:12;;;;;;;11.03;9.13;;;;;;;10.83;97.41;100453.31;5129962;28;20285;-58
2022/10/21 03:35:39;;;;;;;10.50;7.30;;;;;;;10.83;97.48;100458.50;5130127;28;20219;-55
2022/10/21 03:38:06;;;;;;;16.13;9.00;;;;;;;10.85;96.95;100452.38;5130232;28;20204;-60
2022/10/21 03:40:35;;;;;;;17.60;9.13;;;;;;;10.86;96.68;100461.88;5130089;28;20192;-53
2022/10/21 03:43:01;;;;;;;12.67;7.27;;;;;;;10.84;97.25;100452.38;5130016;28;20587;-55
2022/10/21 03:45:28;;;;;;;10.07;7.33;;;;;;;10.86;96.85;100461.03;5130470;28;20190;-59
2022/10/21 03:47:55;;;;;;;11.20;6.63;;;;;;;10.80;97.03;100453.34;5129921;28;20284;-58
2022/10/21 03:50:22;;;;;;;14.50;6.67;;;;;;;10.76;97.09;100457.72;5129854;28;20590;-59
2022/10/21 03:52:49;;;;;;;12.37;6.90;;;;;;;10.81;97.44;100453.31;5129901;28;20204;-58
2022/10/21 03:55:19;;;;;;;8.70;6.87;;;;;;;10.78;97.43;100458.53;5129869;28;20202;-57
2022/10/21 03:57:48;;;;;;;9.40;6.93;;;;;;;10.79;97.96;100468.06;5129326;28;20189;-58
2022/10/21 04:00:16;;;;;;;30.10;7.53;;;;;;;10.76;97.64;100464.63;5129822;28;20297;-58
2022/10/21 04:02:43;;;;;;;15.97;7.17;;;;;;;10.77;97.79;100459.44;5128318;27;20201;-59
2022/10/21 04:05:10;;;;;;;7.63;5.80;;;;;;;10.82;97.35;100461.97;5129513;28;20214;-58
2022/10/21 04:07:37;;;;;;;5.70;5.20;;;;;;;10.81;97.39;100466.31;5129869;28;20196;-58
2022/10/21 04:10:05;;;;;;;6.20;5.63;;;;;;;10.77;97.51;100469.81;5129465;28;20285;-58
2022/10/21 04:12:32;;;;;;;8.10;5.40;;;;;;;10.80;98.05;100464.59;5129696;27;20230;-58
2022/10/21 04:15:00;;;;;;;8.17;6.00;;;;;;;10.83;97.44;100464.56;5129702;28;20198;-57
2022/10/21 04:17:27;;;;;;;19.50;6.60;;;;;;;10.79;98.11;100464.59;5129582;28;20204;-57
2022/10/21 04:19:54;;;;;;;14.25;7.13;;;;;;;10.72;99.39;100465.59;5129343;28;20824;-55
2022/10/21 04:22:21;;;;;;;16.37;6.60;;;;;;;10.84;98.03;100468.84;5129696;28;20197;-54
2022/10/21 04:24:48;;;;;;;14.67;6.63;;;;;;;10.93;96.45;100443.63;5129429;28;20194;-55
2022/10/21 04:27:15;;;;;;;8.07;7.27;;;;;;;10.83;97.44;100469.75;5129508;28;20718;-55
2022/10/21 04:29:42;;;;;;;8.73;6.40;;;;;;;10.96;97.68;100467.78;5129570;28;20190;-54
2022/10/21 04:32:10;;;;;;;12.53;7.07;;;;;;;11.04;97.06;100476.34;5129530;28;20213;-53
2022/10/21 04:34:37;;;;;;;14.30;7.33;;;;;;;11.09;97.12;100463.25;5130283;27;20190;-54
2022/10/21 04:37:04;;;;;;;10.53;7.33;;;;;;;11.11;96.79;100467.56;5121495;27;20202;-54
2022/10/21 04:39:31;;;;;;;8.33;7.17;;;;;;;11.12;96.03;100468.44;5115637;27;20295;-55
2022/10/21 04:41:58;;;;;;;11.20;7.40;;;;;;;11.16;95.56;100467.50;5131367;27;20468;-55
2022/10/21 04:44:25;;;;;;;13.47;7.80;;;;;;;11.17;95.85;100461.44;5130510;27;20301;-53
2022/10/21 04:46:52;;;;;;;15.40;8.13;;;;;;;11.21;94.93;100471.72;5132812;27;20285;-55
2022/10/21 04:49:21;;;;;;;15.70;8.37;;;;;;;11.23;94.47;100466.50;5133020;27;20202;-53
2022/10/21 04:51:48;;;;;;;12.93;7.73;;;;;;;11.28;94.25;100481.16;5132728;27;20304;-53
2022/10/21 04:54:15;;;;;;;14.63;8.10;;;;;;;11.12;94.47;100458.03;5133015;27;20288;-58
2022/10/21 04:56:42;;;;;;;11.00;7.83;;;;;;;11.29;94.69;100471.59;5132809;27;20300;-57
2022/10/21 04:59:09;;;;;;;11.50;8.80;;;;;;;11.37;94.25;100477.53;5132750;27;20840;-57
2022/10/21 05:01:36;;;;;;;11.93;8.00;;;;;;;11.40;93.52;100480.06;5132672;27;20216;-57
2022/10/21 05:04:03;;;;;;;16.53;7.83;;;;;;;11.43;94.11;100464.44;5132613;27;20198;-57
2022/10/21 05:06:31;;;;;;;14.50;7.90;;;;;;;11.49;93.45;100471.28;5133137;27;20587;-57
2022/10/21 05:08:58;;;;;;;19.60;8.17;;;;;;;11.55;93.23;100472.03;5132697;27;20666;-58
2022/10/21 05:11:25;;;;;;;19.87;8.33;;;;;;;11.61;92.83;100482.34;5132285;27;20605;-58
2022/10/21 05:13:52;;;;;;;17.93;8.47;;;;;;;11.61;92.68;100484.06;5131418;27;20194;-58
2022/10/21 05:16:19;;;;;;;15.63;8.53;;;;;;;11.52;93.02;100477.28;5131180;27;20194;-58
2022/10/21 05:18:45;;;;;;;12.33;7.90;;;;;;;11.62;92.77;100489.22;5130769;27;20186;-57
2022/10/21 05:21:12;;;;;;;13.73;8.17;;;;;;;11.69;91.58;100489.13;5130976;27;20192;-57
2022/10/21 05:23:41;;;;;;;10.10;7.63;;;;;;;11.71;91.46;100489.97;5128026;27;20280;-58
2022/10/21 05:26:08;;;;;;;13.20;8.37;;;;;;;11.73;91.25;100493.41;5130965;27;20201;-57
2022/10/21 05:28:36;;;;;;;19.27;9.33;;;;;;;11.73;90.80;100493.41;5131221;27;20202;-58
2022/10/21 05:31:03;;;;;;;29.67;10.50;;;;;;;11.78;90.31;100500.25;5130509;27;20221;-54
2022/10/21 05:33:30;;;;;;;23.37;10.80;;;;;;;11.80;89.14;100502.84;5124120;27;20229;-54
2022/10/21 05:35:59;;;;;;;19.70;10.37;;;;;;;11.75;89.87;100504.59;5110112;28;20777;-55
2022/10/21 05:38:27;;;;;;;19.83;10.63;;;;;;;11.81;89.18;100509.75;5119448;27;20222;-54
2022/10/21 05:40:56;;;;;;;19.23;11.07;;;;;;;11.87;88.89;100504.44;5129417;27;20214;-54
2022/10/21 05:43:23;;;;;;;19.80;11.17;;;;;;;12.01;88.14;100510.25;5129956;27;20601;-53
2022/10/21 05:45:50;;;;;;;17.50;10.97;;;;;;;12.05;87.89;100516.25;5129664;27;20218;-53
2022/10/21 05:48:17;;;;;;;18.00;10.60;;;;;;;11.99;88.31;100517.22;5131295;27;20222;-54
2022/10/21 05:50:44;;;;;;;15.40;9.60;;;;;;;12.05;88.19;100522.31;5129679;27;20656;-54
2022/10/21 05:53:11;;;;;;;12.00;9.07;;;;;;;12.12;87.35;100523.91;5128780;27;20220;-54
2022/10/21 05:55:38;;;;;;;14.33;8.37;;;;;;;12.12;87.54;100529.13;5130981;27;20208;-58
2022/10/21 05:58:07;;;;;;;16.60;8.60;;;;;;;12.12;87.53;100513.50;5131915;27;20194;-54
2022/10/21 06:00:33;;;;;;;16.20;8.43;;;;;;;12.13;87.73;100525.63;5131476;27;20475;-54
2022/10/21 06:03:00;;;;;;;13.70;9.53;;;;;;;12.14;87.63;100534.28;5131360;27;20190;-54
2022/10/21 06:05:28;;;;;;;16.47;9.50;;;;;;;12.19;87.08;100515.06;5130547;27;20712;-54
2022/10/21 06:07:55;;;;;;;19.33;9.57;;;;;;;12.46;86.11;100536.25;5129895;27;20193;-53
2022/10/21 06:10:22;;;;;;;16.27;9.90;;;;;;;12.49;85.56;100533.59;5130191;27;20194;-53
2022/10/21 06:12:48;;;;;;;16.33;9.97;;;;;;;12.60;84.95;100532.50;5129929;27;20213;-54
2022/10/21 06:15:17;;;;;;;22.30;10.23;;;;;;;12.68;84.56;100529.72;5130294;27;20577;-54
2022/10/21 06:17:44;;;;;;;16.97;9.93;;;;;;;12.75;84.04;100541.75;5130797;27;20212;-58
2022/10/21 06:20:11;;;;;;;16.37;8.70;;;;;;;12.76;83.92;100533.00;5131118;27;20196;-58
2022/10/21 06:22:38;;;;;;;16.67;9.70;;;;;;;12.81;83.86;100541.59;5131127;27;20193;-57
2022/10/21 06:25:05;;;;;;;12.73;8.80;;;;;;;12.67;83.96;100514.97;5131046;27;20198;-57
2022/10/21 06:27:32;;;;;;;13.60;9.00;;;;;;;12.92;84.00;100541.38;5130880;27;20222;-58
2022/10/21 06:29:59;;;;;;;19.73;9.27;;;;;;;13.01;83.71;100544.63;5126968;27;20230;-57
2022/10/21 06:32:27;;;;;;;23.10;9.23;;;;;;;13.00;84.92;100552.47;5129633;27;20252;-58
2022/10/21 06:34:54;;;;;;;16.03;10.10;;;;;;;13.10;85.87;100543.53;5129090;27;20222;-58
2022/10/21 06:37:21;;;;;;;50.77;13.07;;;;;;;13.20;86.57;100550.31;5128892;27;20218;-58
2022/10/21 06:39:48;;;;;;;42.80;13.43;;;;;;;13.18;87.02;100546.03;5130040;27;20686;-53
2022/10/21 06:42:15;;;;;;;37.43;13.13;;;;;;;13.06;87.44;100524.53;5130559;27;20229;-53
2022/10/21 06:44:42;;;;;;;53.30;14.03;;;;;;;13.21;86.62;100552.00;5130030;27;20212;-57
2022/10/21 06:47:09;;;;;;;30.30;12.33;;;;;;;13.00;87.54;100555.94;5131019;27;20679;-54
2022/10/21 06:49:37;;;;;;;45.77;14.57;;;;;;;13.03;88.05;100555.00;5130756;27;20575;-55
2022/10/21 06:52:04;;;;;;;40.07;13.10;;;;;;;13.15;87.50;100546.09;5130485;27;20235;-54
2022/10/21 06:54:31;;;;;;;38.70;12.13;;;;;;;13.29;85.88;100552.72;5130678;27;20281;-54
2022/10/21 06:56:58;;;;;;;26.83;10.77;;;;;;;13.58;84.25;100558.97;5129884;27;20190;-55
2022/10/21 06:59:25;;;;;;;18.80;10.80;;;;;;;13.80;82.79;100553.19;5130640;27;20198;-54
2022/10/21 07:01:52;;;;;;;26.27;11.73;;;;;;;14.00;81.44;100557.88;5130303;27;20186;-55
2022/10/21 07:04:19;;;;;;;46.00;13.50;;;;;;;14.18;80.24;100551.31;5130406;27;20202;-54
2022/10/21 07:06:48;;;;;;;47.87;13.17;;;;;;;14.23;79.22;100556.41;5130309;27;20240;-55
2022/10/21 07:09:15;;;;;;;22.17;12.10;;;;;;;14.31;78.60;100547.50;5130251;27;20262;-54
2022/10/21 07:11:43;;;;;;;40.57;22.73;;;;;;;14.44;77.76;100548.91;5129505;27;20209;-54
2022/10/21 07:14:11;;;;;;;28.70;16.30;;;;;;;14.56;77.28;100554.69;5129001;27;20193;-54
2022/10/21 07:16:38;;;;;;;27.87;14.20;;;;;;;14.78;75.37;100555.78;5129208;27;20247;-54
2022/10/21 07:19:06;;;;;;;36.17;14.13;;;;;;;14.85;74.69;100557.28;5129450;27;20190;-55
2022/10/21 07:21:33;;;;;;;33.87;13.70;;;;;;;14.95;74.04;100555.25;5130177;27;20280;-55
2022/10/21 07:24:02;;;;;;;88.43;19.10;;;;;;;14.84;73.67;100558.19;5129900;27;20190;-54
2022/10/21 07:26:31;;;;;;;31.13;13.77;;;;;;;14.76;74.79;100554.94;5130346;27;20951;-55
2022/10/21 07:28:59;;;;;;;26.63;12.23;;;;;;;14.80;74.25;100553.94;5129814;27;20212;-54
2022/10/21 07:31:27;;;;;;;37.23;13.17;;;;;;;14.83;73.52;100551.25;5129890;28;20237;-55
2022/10/21 07:33:54;;;;;;;37.07;13.70;;;;;;;14.87;73.78;100545.88;5129562;28;20202;-54
2022/10/21 07:36:24;;;;;;;24.20;13.53;;;;;;;15.13;72.65;100545.06;5130211;28;20560;-55
2022/10/21 07:38:53;;;;;;;44.67;15.33;;;;;;;15.36;72.22;100546.09;5130263;28;20202;-55
2022/10/21 07:41:23;;;;;;;31.33;13.37;;;;;;;15.40;71.51;100551.22;5130266;28;20201;-54
2022/10/21 07:43:50;;;;;;;30.03;13.87;;;;;;;15.64;70.79;100544.34;5130014;28;20289;-53
2022/10/21 07:46:19;;;;;;;28.67;13.13;;;;;;;15.78;69.58;100542.13;5129659;28;20204;-59
2022/10/21 07:48:46;;;;;;;29.33;14.30;;;;;;;15.97;67.79;100537.13;5128504;28;20193;-58
2022/10/21 07:51:16;;;;;;;24.83;12.57;;;;;;;16.05;66.91;100544.69;5128690;27;20600;-54
2022/10/21 07:53:43;;;;;;;35.57;13.40;;;;;;;15.92;67.23;100531.16;5129906;27;20224;-54
2022/10/21 07:56:13;;;;;;;28.60;12.53;;;;;;;16.09;67.25;100543.69;5129828;28;20225;-58
2022/10/21 07:58:41;;;;;;;22.43;12.03;;;;;;;16.10;67.49;100543.66;5129723;28;20288;-53
2022/10/21 08:01:10;;;;;;;19.67;10.83;;;;;;;16.21;66.73;100546.75;5130269;28;20189;-53
2022/10/21 08:03:38;;;;;;;17.83;10.87;;;;;;;15.92;66.74;100550.34;5129592;28;20190;-54
2022/10/21 08:06:06;;;;;;;18.83;11.50;;;;;;;16.00;66.55;100541.41;5129762;28;20664;-57
2022/10/21 08:08:34;;;;;;;19.90;11.60;;;;;;;15.91;68.18;100543.41;5129613;27;20198;-57
2022/10/21 08:11:01;;;;;;;23.57;12.13;;;;;;;15.90;67.58;100535.63;5132677;27;20194;-57
2022/10/21 08:13:30;;;;;;;28.57;12.33;;;;;;;15.76;68.99;100538.72;5133636;27;20240;-55
2022/10/21 08:15:59;;;;;;;17.57;11.33;;;;;;;15.56;68.19;100535.91;5133381;27;20292;-55
2022/10/21 08:18:26;;;;;;;18.63;10.37;;;;;;;15.32;69.10;100537.53;5133805;27;20248;-53
2022/10/21 08:20:54;;;;;;;38.63;19.97;;;;;;;15.38;69.87;100541.69;5133604;27;20257;-54
2022/10/21 08:23:22;;;;;;;60.17;27.80;;;;;;;15.48;69.71;100541.34;5133687;27;20277;-53
2022/10/21 08:25:51;;;;;;;36.23;20.33;;;;;;;15.65;70.23;100537.38;5133435;27;20605;-54
2022/10/21 08:28:19;;;;;;;21.67;12.20;;;;;;;15.64;68.12;100546.13;5133101;27;20607;-53
2022/10/21 08:30:46;;;;;;;14.57;10.87;;;;;;;15.48;68.19;100543.09;5132785;27;20197;-57
2022/10/21 08:33:15;;;;;;;18.13;12.17;;;;;;;15.49;68.36;100532.59;5132681;27;20209;-57
2022/10/21 08:35:42;;;;;;;22.13;12.53;;;;;;;15.46;68.56;100531.84;5131669;27;20190;-58
2022/10/21 08:38:09;;;;;;;16.97;12.00;;;;;;;15.31;68.94;100503.56;5131817;27;20258;-57
2022/10/21 08:40:40;;;;;;;23.10;11.67;;;;;;;15.43;68.60;100531.94;5131790;27;20221;-58
2022/10/21 08:43:08;;;;;;;25.23;13.07;;;;;;;15.53;69.58;100528.97;5129641;27;20190;-58
2022/10/21 08:45:42;;;;;;;18.53;12.37;;;;;;;15.56;69.07;100531.53;5131743;27;20200;-57
2022/10/21 08:48:18;;;;;;;19.50;13.87;;;;;;;15.68;69.08;100525.03;5129968;27;20210;-58
2022/10/21 08:50:49;;;;;;;23.53;12.73;;;;;;;15.50;69.16;100522.97;5129275;27;20314;-55
2022/10/21 08:53:20;;;;;;;18.77;12.30;;;;;;;15.37;68.86;100514.66;5131900;27;20267;-57
2022/10/21 08:55:47;;;;;;;21.83;12.67;;;;;;;15.49;69.55;100524.75;5132212;27;20289;-57
2022/10/21 08:58:18;;;;;;;22.53;11.63;;;;;;;15.43;69.76;100521.47;5132304;27;20292;-58
2022/10/21 09:00:48;;;;;;;21.23;11.90;;;;;;;15.36;69.74;100527.78;5132332;27;20198;-57
2022/10/21 09:03:27;;;;;;;20.13;12.33;;;;;;;15.35;70.24;100516.47;5131561;27;20555;-58
2022/10/21 09:06:09;;;;;;;20.47;11.73;;;;;;;15.52;69.25;100500.25;5131872;27;20568;-57
2022/10/21 09:08:44;;;;;;;21.00;13.20;;;;;;;15.83;68.51;100506.16;5128908;27;20194;-58
2022/10/21 09:11:25;;;;;;;22.00;13.90;;;;;;;16.00;67.81;100512.59;5131103;27;20268;-58
2022/10/21 09:14:15;;;;;;;23.23;12.13;;;;;;;16.05;67.07;100508.03;5131068;27;20668;-58
2022/10/21 09:16:51;;;;;;;17.97;12.37;;;;;;;16.08;66.24;100510.56;5127966;27;20216;-54
2022/10/21 09:19:34;;;;;;;25.67;17.10;;;;;;;15.75;67.82;100489.03;5131083;27;20197;-54
2022/10/21 09:22:14;;;;;;;29.47;20.10;;;;;;;15.93;67.63;100499.69;5131049;27;21180;-54
2022/10/21 09:24:48;;;;;;;23.67;14.03;;;;;;;15.84;68.01;100500.03;5130835;27;20204;-55
2022/10/21 09:27:16;;;;;;;16.30;13.43;;;;;;;15.94;67.02;100496.19;5132174;27;20768;-58
2022/10/21 09:29:46;;;;;;;22.43;14.33;;;;;;;15.96;66.75;100502.22;5132073;27;20198;-54
2022/10/21 09:32:16;;;;;;;17.43;13.23;;;;;;;15.94;67.39;100501.41;5132125;27;20224;-58
2022/10/21 09:34:55;;;;;;;23.77;14.20;;;;;;;15.98;66.92;100497.78;5132087;27;20220;-58
2022/10/21 09:37:30;;;;;;;22.13;11.77;;;;;;;16.06;66.11;100501.88;5132438;27;20238;-58
2022/10/21 09:40:07;;;;;;;19.03;13.83;;;;;;;16.12;66.22;100493.84;5131962;27;20221;-58
2022/10/21 09:42:34;;;;;;;17.13;13.73;;;;;;;15.83;67.54;100490.47;5113672;27;20221;-58
2022/10/21 09:45:01;;;;;;;19.97;12.93;;;;;;;15.78;67.58;100487.16;5111117;28;20598;-57
2022/10/21 09:47:28;;;;;;;21.00;12.97;;;;;;;15.67;67.35;100470.97;5111005;28;20298;-58
2022/10/21 09:49:58;;;;;;;16.07;12.23;;;;;;;15.41;68.66;100487.50;5110570;28;20302;-57
2022/10/21 09:52:30;;;;;;;17.37;13.27;;;;;;;15.40;68.79;100482.34;5129602;27;20229;-57
2022/10/21 09:54:57;;;;;;;18.27;13.93;;;;;;;15.44;68.36;100473.50;5131199;27;20746;-58
2022/10/21 09:57:44;;;;;;;24.13;14.27;;;;;;;15.43;67.99;100470.00;5129165;27;20208;-54
2022/10/21 10:00:12;;;;;;;20.03;13.63;;;;;;;15.51;68.72;100477.59;5128179;27;20189;-54
2022/10/21 10:02:42;;;;;;;17.57;14.10;;;;;;;15.53;68.29;100465.31;5130188;27;20229;-54
2022/10/21 10:05:37;;;;;;;17.57;13.97;;;;;;;15.46;68.22;100461.22;5127933;27;20201;-58
2022/10/21 10:08:39;;;;;;;18.57;13.63;;;;;;;15.59;67.83;100457.28;5131125;27;20514;-57
2022/10/21 10:11:15;;;;;;;19.67;14.20;;;;;;;15.70;67.61;100452.53;5067051;28;20326;-57
2022/10/21 10:13:44;;;;;;;17.77;14.10;;;;;;;15.74;67.40;100446.28;5066436;28;20681;-54
2022/10/21 10:16:18;;;;;;;22.50;14.80;;;;;;;15.84;66.73;100446.81;5100637;27;20190;-54
2022/10/21 10:18:45;;;;;;;21.97;14.83;;;;;;;16.01;66.90;100433.13;5129673;27;20273;-54
2022/10/21 10:21:16;;;;;;;20.90;14.23;;;;;;;16.11;65.80;100434.50;5129601;27;20245;-54
2022/10/21 10:23:48;;;;;;;22.20;15.17;;;;;;;16.12;65.67;100434.44;5129703;27;20194;-55
2022/10/21 10:26:22;;;;;;;19.00;14.90;;;;;;;16.07;64.90;100430.28;5129469;27;20190;-54
2022/10/21 10:28:51;;;;;;;29.87;14.17;;;;;;;15.94;65.79;100427.25;5127736;27;20229;-54
2022/10/21 10:31:39;;;;;;;23.70;15.07;;;;;;;15.94;65.73;100427.25;5130832;27;20198;-54
2022/10/21 10:34:08;;;;;;;21.27;14.57;;;;;;;15.89;66.24;100416.09;5125221;27;20596;-54
2022/10/21 10:36:39;;;;;;;22.07;14.53;;;;;;;15.90;65.90;100404.72;5131024;27;20649;-54
2022/10/21 10:39:09;;;;;;;19.47;14.80;;;;;;;15.96;65.66;100400.09;5130743;27;20190;-54
2022/10/21 10:41:39;;;;;;;21.40;14.30;;;;;;;16.01;65.41;100417.41;5130745;27;20197;-54
2022/10/21 10:44:25;;;;;;;26.20;15.03;;;;;;;15.96;65.63;100413.19;5130490;27;20194;-53
2022/10/21 10:46:55;;;;;;;20.17;15.03;;;;;;;16.00;65.44;100402.63;5127259;27;20226;-55
2022/10/21 10:49:23;;;;;;;25.37;14.73;;;;;;;16.07;65.33;100401.47;5129956;27;20228;-53
2022/10/21 10:52:05;;;;;;;19.77;13.97;;;;;;;16.10;64.95;100399.59;5129786;27;20305;-54
2022/10/21 10:54:32;;;;;;;19.97;14.27;;;;;;;15.98;65.36;100395.66;5129835;27;20226;-54
2022/10/21 10:57:02;;;;;;;20.80;14.23;;;;;;;15.94;65.66;100388.81;5130093;27;20898;-54
2022/10/21 10:59:35;;;;;;;20.53;14.50;;;;;;;15.96;65.68;100383.53;5130519;27;20780;-54
2022/10/21 11:02:22;;;;;;;20.20;14.87;;;;;;;15.91;65.52;100375.84;5129177;27;20217;-54
2022/10/21 11:05:15;;;;;;;18.47;14.30;;;;;;;16.06;64.91;100374.41;5118820;27;20197;-57
2022/10/21 11:07:47;;;;;;;23.93;14.63;;;;;;;16.18;64.39;100375.72;5130099;27;20194;-58
2022/10/21 11:10:29;;;;;;;19.43;14.20;;;;;;;16.18;64.15;100373.09;5130497;27;20280;-58
2022/10/21 11:12:56;;;;;;;24.03;14.37;;;;;;;16.38;64.00;100367.94;5130203;27;20605;-58
2022/10/21 11:15:30;;;;;;;17.63;13.40;;;;;;;16.23;63.60;100344.97;5130710;27;20216;-58
2022/10/21 11:18:01;;;;;;;28.10;15.00;;;;;;;16.21;64.86;100362.53;5130399;27;20198;-58
2022/10/21 11:20:38;;;;;;;20.00;14.27;;;;;;;16.16;64.50;100348.72;5130178;27;20194;-59
2022/10/21 11:23:23;;;;;;;28.17;15.00;;;;;;;16.16;64.80;100344.34;5130061;27;20186;-58
2022/10/21 11:25:55;;;;;;;19.50;14.33;;;;;;;16.24;64.55;100342.31;5129886;27;20194;-58
2022/10/21 11:28:30;;;;;;;22.60;15.37;;;;;;;16.11;64.57;100329.75;5130004;27;20232;-58
2022/10/21 11:31:13;;;;;;;23.47;15.77;;;;;;;16.24;64.88;100342.31;5130155;27;20232;-58